Terminal Aerodrome Forecast
Issued by NWS Bismarck, ND

Home | Current Version | Previous Version | Graphics & Text | Print | Product List | Glossary Off
Versions: 1 2 3 4 5 6 7 8 9 10 11 12 13 14 15 16 17 18 19

000
FTUS43 KBIS 300500
TAFBIS
TAF
KBIS 300536Z 3006/0106 11010KT P6SM VCSH SCT015 OVC025
     FM300900 11012KT 5SM -SHRA BR VCTS BKN012 OVC025CB
     FM301200 11015KT P6SM -SHRA OVC008
     FM301900 11016G24KT 4SM -SHRA VCTS BKN012 OVC025CB
     FM010100 VRB05KT 3SM -SHRA BKN008 OVC012=

USA.gov is the U.S. government's official web portal to all federal, state and local government web resources and services.